Time;durP1;ratioP1;P1;durP2;ratioP2;P2;SDS_P1;SDS_P2;PMS_P1;PMS_P2;Temp;Humidity;BMP_temperature;BMP_pressure;BME280_temperature;BME280_humidity;BME280_pressure;Samples;Min_cycle;Max_cycle;Signal;HPM_P1;HPM_P2
2022/04/07 00:00:35;;;;;;;2.53;1.80;;;9.00;99.90;;;;;;4999645;28;20433;-61
2022/04/07 00:03:01;;;;;;;3.07;2.00;;;8.90;99.90;;;;;;4999721;28;20441;-59
2022/04/07 00:05:26;;;;;;;1.50;1.40;;;8.90;99.90;;;;;;4997519;28;20600;-60
2022/04/07 00:07:52;;;;;;;2.33;1.80;;;8.90;99.90;;;;;;4998488;28;20737;-59
2022/04/07 00:10:18;;;;;;;1.90;1.67;;;8.90;99.90;;;;;;4998783;28;20854;-59
2022/04/07 00:12:44;;;;;;;1.47;1.37;;;8.90;99.90;;;;;;5002778;28;20238;-59
2022/04/07 00:15:11;;;;;;;1.77;1.67;;;8.80;99.90;;;;;;5003562;28;20629;-60
2022/04/07 00:17:37;;;;;;;1.47;1.37;;;8.80;99.90;;;;;;5002083;28;21819;-60
2022/04/07 00:20:04;;;;;;;1.90;1.70;;;8.80;99.90;;;;;;4997739;28;20693;-60
2022/04/07 00:22:29;;;;;;;1.23;1.23;;;8.80;99.90;;;;;;4997551;28;20500;-59
2022/04/07 00:24:55;;;;;;;1.50;1.40;;;8.80;99.90;;;;;;4996314;28;20435;-60
2022/04/07 00:27:21;;;;;;;1.60;1.50;;;8.80;99.90;;;;;;4997200;28;20225;-61
2022/04/07 00:29:47;;;;;;;1.40;1.20;;;8.80;99.90;;;;;;4999734;28;20734;-59
2022/04/07 00:32:13;;;;;;;1.30;1.20;;;8.70;99.90;;;;;;5001478;28;20184;-59
2022/04/07 00:34:39;;;;;;;1.30;1.20;;;8.70;99.90;;;;;;4980114;28;20239;-59
2022/04/07 00:37:05;;;;;;;1.00;1.00;;;8.70;99.90;;;;;;5002985;28;20447;-59
2022/04/07 00:39:31;;;;;;;1.47;1.20;;;8.70;99.90;;;;;;5005406;28;20426;-60
2022/04/07 00:41:57;;;;;;;1.00;1.00;;;8.70;99.90;;;;;;4998549;28;20464;-59
2022/04/07 00:44:24;;;;;;;1.40;1.10;;;8.60;99.90;;;;;;5003473;28;20433;-59
2022/04/07 00:46:50;;;;;;;1.10;1.10;;;8.70;99.90;;;;;;5006360;28;20195;-59
2022/04/07 00:49:15;;;;;;;1.20;1.00;;;8.70;99.90;;;;;;4999875;28;20429;-60
2022/04/07 00:51:43;;;;;;;1.10;1.00;;;8.70;99.90;;;;;;4996637;28;20185;-59
2022/04/07 00:54:11;;;;;;;1.53;1.27;;;8.70;99.90;;;;;;4997275;28;20188;-59
2022/04/07 00:56:37;;;;;;;1.10;1.10;;;8.70;99.90;;;;;;4997538;28;20545;-59
2022/04/07 00:59:04;;;;;;;1.00;1.00;;;8.60;99.90;;;;;;4997966;28;20493;-59
2022/04/07 01:01:31;;;;;;;1.20;1.20;;;8.60;99.90;;;;;;4998872;28;20495;-60
2022/04/07 01:03:57;;;;;;;0.90;0.90;;;8.60;99.90;;;;;;5004081;28;20462;-59
2022/04/07 01:06:24;;;;;;;2.10;1.20;;;8.50;99.90;;;;;;4997537;28;20455;-59
2022/04/07 01:08:50;;;;;;;1.10;1.10;;;8.50;99.90;;;;;;4998052;28;20864;-60
2022/04/07 01:11:17;;;;;;;1.07;1.00;;;8.50;99.90;;;;;;4975807;28;20454;-59
2022/04/07 01:13:50;;;;;;;1.23;1.13;;;8.50;99.90;;;;;;4998525;28;20427;-59
2022/04/07 01:16:17;;;;;;;1.00;1.00;;;8.40;99.90;;;;;;4997522;28;20451;-59
2022/04/07 01:18:44;;;;;;;1.20;1.10;;;8.40;99.90;;;;;;5001277;28;20451;-60
2022/04/07 01:21:11;;;;;;;1.30;1.20;;;8.30;99.90;;;;;;5000846;28;20467;-59
2022/04/07 01:23:38;;;;;;;1.30;1.30;;;8.20;99.90;;;;;;5003478;28;20501;-59
2022/04/07 01:26:09;;;;;;;1.10;1.00;;;8.20;99.90;;;;;;4996512;28;20517;-59
2022/04/07 01:28:35;;;;;;;1.00;1.00;;;8.10;99.90;;;;;;5000175;28;20431;-59
2022/04/07 01:31:01;;;;;;;1.63;1.30;;;8.10;99.90;;;;;;4987172;28;20439;-59
2022/04/07 01:33:27;;;;;;;1.03;1.03;;;8.00;99.90;;;;;;5004578;28;20435;-58
2022/04/07 01:35:53;;;;;;;1.10;1.10;;;8.00;99.90;;;;;;5001364;28;20207;-59
2022/04/07 01:38:19;;;;;;;1.20;1.20;;;8.00;99.90;;;;;;5000816;28;20491;-59
2022/04/07 01:40:47;;;;;;;6.00;1.37;;;8.00;99.90;;;;;;5000668;28;20431;-60
2022/04/07 01:43:14;;;;;;;2.30;1.00;;;7.90;99.90;;;;;;4999771;28;20463;-59
2022/04/07 01:45:40;;;;;;;1.47;1.30;;;7.90;99.90;;;;;;5001119;28;20439;-59
2022/04/07 01:48:08;;;;;;;1.17;1.10;;;7.90;99.90;;;;;;4999101;28;20430;-59
2022/04/07 01:50:35;;;;;;;1.20;1.10;;;7.90;99.90;;;;;;4986353;28;20476;-60
2022/04/07 01:53:01;;;;;;;1.50;1.20;;;7.90;99.90;;;;;;5007357;28;20423;-59
2022/04/07 01:55:28;;;;;;;2.00;1.10;;;7.90;99.90;;;;;;5004859;28;20954;-59
2022/04/07 01:57:54;;;;;;;1.30;1.20;;;7.90;99.90;;;;;;5003550;28;20451;-60
2022/04/07 02:00:20;;;;;;;1.30;1.20;;;7.90;99.90;;;;;;4981156;28;20443;-59
2022/04/07 02:02:47;;;;;;;1.83;1.60;;;7.90;99.90;;;;;;5003330;28;20463;-59
2022/04/07 02:05:13;;;;;;;1.30;1.20;;;7.90;99.90;;;;;;4995531;28;20444;-59
2022/04/07 02:07:41;;;;;;;1.30;1.20;;;7.90;99.90;;;;;;5000515;28;20622;-59
2022/04/07 02:10:09;;;;;;;1.50;1.40;;;7.90;99.90;;;;;;5000979;28;20439;-61
2022/04/07 02:12:37;;;;;;;1.50;1.40;;;7.90;99.90;;;;;;4999918;28;20434;-60
2022/04/07 02:15:04;;;;;;;1.20;1.10;;;7.90;99.90;;;;;;5000554;28;20439;-59
2022/04/07 02:17:30;;;;;;;1.70;1.20;;;7.90;99.90;;;;;;5000991;28;20605;-59
2022/04/07 02:19:57;;;;;;;1.93;1.20;;;7.90;99.90;;;;;;4999512;28;20443;-59
2022/04/07 02:22:23;;;;;;;0.93;0.93;;;7.90;99.90;;;;;;5000666;28;20283;-60
2022/04/07 02:24:49;;;;;;;1.47;1.20;;;7.90;99.90;;;;;;4983191;28;20879;-59
2022/04/07 02:27:16;;;;;;;1.80;1.40;;;7.90;99.90;;;;;;4982478;28;20537;-59
2022/04/07 02:29:42;;;;;;;2.50;1.20;;;7.90;99.90;;;;;;4985934;28;20466;-60
2022/04/07 02:32:08;;;;;;;1.40;1.30;;;7.90;99.90;;;;;;5004653;28;20437;-60
2022/04/07 02:34:34;;;;;;;1.63;1.27;;;7.90;99.90;;;;;;4999564;28;21024;-60
2022/04/07 02:37:00;;;;;;;1.33;1.23;;;7.90;99.90;;;;;;4999976;28;20463;-59
2022/04/07 02:39:26;;;;;;;1.40;1.30;;;7.90;99.90;;;;;;5001172;28;20468;-60
2022/04/07 02:41:53;;;;;;;1.70;1.23;;;7.90;99.90;;;;;;4998453;28;20497;-59
2022/04/07 02:44:19;;;;;;;2.97;1.53;;;7.90;99.90;;;;;;4982645;28;20432;-59
2022/04/07 02:46:45;;;;;;;2.77;1.50;;;7.90;99.90;;;;;;4999372;28;20451;-59
2022/04/07 02:49:12;;;;;;;1.73;1.63;;;7.90;99.90;;;;;;5006010;28;20424;-59
2022/04/07 02:51:38;;;;;;;2.97;1.80;;;7.90;99.90;;;;;;5003006;28;20439;-59
2022/04/07 02:54:04;;;;;;;1.37;1.27;;;7.90;99.90;;;;;;5005259;28;20450;-59
2022/04/07 02:56:29;;;;;;;3.57;1.50;;;7.90;99.90;;;;;;5010119;28;20459;-59
2022/04/07 02:58:56;;;;;;;1.27;1.17;;;7.90;99.90;;;;;;5002338;28;20189;-59
2022/04/07 03:01:21;;;;;;;1.97;1.40;;;7.90;99.90;;;;;;5006203;28;20239;-59
2022/04/07 03:03:48;;;;;;;1.40;1.30;;;7.90;99.90;;;;;;5002555;28;20475;-59
2022/04/07 03:06:15;;;;;;;1.30;1.20;;;7.90;99.90;;;;;;5006975;28;20259;-60
2022/04/07 03:08:40;;;;;;;1.27;1.17;;;7.90;99.90;;;;;;5005670;28;20432;-59
2022/04/07 03:11:08;;;;;;;2.70;1.20;;;7.90;99.90;;;;;;5006087;28;20518;-60
2022/04/07 03:13:36;;;;;;;1.83;1.47;;;7.90;99.90;;;;;;4997258;28;20282;-59
2022/04/07 03:16:02;;;;;;;1.37;1.27;;;7.90;99.90;;;;;;4982290;28;21077;-60
2022/04/07 03:18:28;;;;;;;1.37;1.27;;;7.90;99.90;;;;;;5005299;28;20459;-59
2022/04/07 03:20:54;;;;;;;1.30;1.20;;;8.00;99.90;;;;;;4998610;28;20943;-60
2022/04/07 03:23:20;;;;;;;1.33;1.20;;;8.00;99.90;;;;;;5006173;28;20611;-59
2022/04/07 03:25:46;;;;;;;4.00;1.40;;;8.00;99.90;;;;;;4981485;28;20436;-59
2022/04/07 03:28:12;;;;;;;1.30;1.20;;;7.90;99.90;;;;;;5006395;28;20180;-60
2022/04/07 03:30:38;;;;;;;4.47;2.10;;;7.90;99.90;;;;;;4998813;28;20419;-59
2022/04/07 03:33:06;;;;;;;1.30;1.30;;;7.90;99.90;;;;;;5009229;28;20742;-59
2022/04/07 03:35:36;;;;;;;1.10;1.10;;;8.00;99.90;;;;;;5002922;28;20436;-59
2022/04/07 03:38:06;;;;;;;1.37;1.27;;;7.90;99.90;;;;;;4998421;28;20538;-59
2022/04/07 03:40:32;;;;;;;1.20;1.20;;;7.90;99.90;;;;;;4980979;28;20435;-60
2022/04/07 03:42:59;;;;;;;1.20;1.10;;;7.90;99.90;;;;;;4999530;28;20454;-60
2022/04/07 03:45:24;;;;;;;1.50;1.40;;;7.90;99.90;;;;;;5003686;28;20955;-59
2022/04/07 03:47:50;;;;;;;3.27;1.33;;;7.90;99.90;;;;;;5007093;28;20498;-60
2022/04/07 03:50:16;;;;;;;1.07;1.07;;;7.80;99.90;;;;;;5002421;28;20427;-59
2022/04/07 03:52:41;;;;;;;3.33;1.20;;;7.80;99.90;;;;;;5005192;28;20243;-59
2022/04/07 03:55:07;;;;;;;1.97;1.27;;;7.80;99.90;;;;;;4999609;28;20177;-60
2022/04/07 03:57:33;;;;;;;2.70;1.30;;;7.80;99.90;;;;;;5006100;28;20246;-58
2022/04/07 03:59:59;;;;;;;2.50;1.40;;;7.80;99.90;;;;;;5002162;28;20502;-58
2022/04/07 04:02:24;;;;;;;2.83;1.40;;;7.80;99.90;;;;;;5005439;28;20203;-58
2022/04/07 04:04:50;;;;;;;1.60;1.50;;;7.80;99.90;;;;;;5002474;28;20195;-59
2022/04/07 04:07:15;;;;;;;2.33;1.83;;;7.80;99.90;;;;;;5004608;28;20287;-60
2022/04/07 04:09:42;;;;;;;1.37;1.27;;;7.70;99.90;;;;;;5001431;28;20218;-59
2022/04/07 04:12:08;;;;;;;1.63;1.33;;;7.70;99.90;;;;;;4994996;28;20267;-60
2022/04/07 04:14:34;;;;;;;1.83;1.20;;;7.70;99.90;;;;;;4992846;28;20427;-61
2022/04/07 04:17:00;;;;;;;2.90;2.20;;;7.60;99.90;;;;;;4979034;28;20463;-59
2022/04/07 04:19:25;;;;;;;1.40;1.30;;;7.70;99.90;;;;;;4981084;28;20172;-60
2022/04/07 04:21:51;;;;;;;2.47;1.50;;;7.60;99.90;;;;;;4997594;28;20205;-59
2022/04/07 04:24:17;;;;;;;2.30;1.27;;;7.70;99.90;;;;;;4996616;28;20736;-59
2022/04/07 04:26:43;;;;;;;1.60;1.50;;;7.70;99.90;;;;;;4995538;28;20200;-60
2022/04/07 04:29:09;;;;;;;1.30;1.30;;;7.70;99.90;;;;;;4997483;28;20173;-59
2022/04/07 04:31:34;;;;;;;1.53;1.43;;;7.70;99.90;;;;;;4995661;28;20886;-60
2022/04/07 04:34:00;;;;;;;1.60;1.50;;;7.60;99.90;;;;;;4994243;28;20188;-60
2022/04/07 04:36:26;;;;;;;1.43;1.33;;;7.60;99.90;;;;;;4994605;28;21101;-60
2022/04/07 04:38:52;;;;;;;1.90;1.20;;;7.60;99.90;;;;;;4996588;28;20435;-59
2022/04/07 04:41:17;;;;;;;2.70;1.60;;;7.50;99.90;;;;;;4993296;28;20247;-59
2022/04/07 04:43:43;;;;;;;1.70;1.60;;;7.50;99.90;;;;;;4976653;28;20208;-59
2022/04/07 04:46:09;;;;;;;1.80;1.50;;;7.50;99.90;;;;;;4996887;28;20192;-61
2022/04/07 04:48:35;;;;;;;1.60;1.40;;;7.50;99.90;;;;;;4996869;28;20223;-59
2022/04/07 04:51:02;;;;;;;1.93;1.40;;;7.50;99.90;;;;;;5002391;28;20192;-60
2022/04/07 04:53:29;;;;;;;1.30;1.30;;;7.50;99.90;;;;;;5001899;28;20428;-60
2022/04/07 04:55:55;;;;;;;1.30;1.20;;;7.50;99.90;;;;;;5003374;28;20450;-60
2022/04/07 04:58:20;;;;;;;2.00;1.20;;;7.50;99.90;;;;;;5009650;28;20423;-59
2022/04/07 05:00:46;;;;;;;17.80;1.47;;;7.50;99.90;;;;;;5003703;28;20924;-60
2022/04/07 05:03:12;;;;;;;1.00;1.00;;;7.60;99.90;;;;;;5001845;28;20223;-59
2022/04/07 05:05:37;;;;;;;1.93;1.40;;;7.60;99.90;;;;;;4999893;28;20180;-61
2022/04/07 05:08:03;;;;;;;1.20;1.10;;;7.60;99.90;;;;;;5001200;28;20630;-60
2022/04/07 05:10:29;;;;;;;1.07;1.00;;;7.60;99.90;;;;;;5010236;28;20176;-60
2022/04/07 05:12:55;;;;;;;1.73;1.10;;;7.60;99.90;;;;;;5001921;28;20959;-59
2022/04/07 05:15:21;;;;;;;1.23;1.13;;;7.60;99.90;;;;;;5013326;28;20438;-59
2022/04/07 05:17:53;;;;;;;3.23;1.20;;;7.60;99.90;;;;;;5017020;28;20242;-60
2022/04/07 05:20:19;;;;;;;1.90;1.17;;;7.60;99.90;;;;;;5006559;28;20229;-59
2022/04/07 05:22:46;;;;;;;1.40;1.30;;;7.60;99.90;;;;;;4990498;28;20706;-59
2022/04/07 05:25:12;;;;;;;1.80;1.10;;;7.60;99.90;;;;;;4993690;28;20446;-60
2022/04/07 05:27:39;;;;;;;1.37;1.27;;;7.60;99.90;;;;;;4991275;28;20469;-61
2022/04/07 05:30:12;;;;;;;1.03;1.03;;;7.60;99.90;;;;;;5000790;28;20463;-61
2022/04/07 05:32:39;;;;;;;1.30;1.20;;;7.70;99.90;;;;;;5019135;28;20427;-61
2022/04/07 05:35:05;;;;;;;1.43;1.10;;;7.70;99.90;;;;;;5000157;28;20462;-61
2022/04/07 05:37:31;;;;;;;1.20;1.10;;;7.70;99.90;;;;;;5006747;28;20459;-60
2022/04/07 05:39:57;;;;;;;1.10;1.03;;;7.70;99.90;;;;;;4999773;28;20441;-61
2022/04/07 05:42:22;;;;;;;2.50;1.43;;;7.70;99.90;;;;;;5003624;28;20200;-61
2022/04/07 05:44:48;;;;;;;1.90;1.33;;;7.70;99.90;;;;;;5000562;28;20184;-60
2022/04/07 05:47:14;;;;;;;1.50;1.40;;;7.70;99.90;;;;;;5007120;28;20549;-60
2022/04/07 05:49:39;;;;;;;1.70;1.50;;;7.70;99.90;;;;;;5014266;28;20249;-61
2022/04/07 05:52:05;;;;;;;1.67;1.30;;;7.70;99.90;;;;;;5012523;28;20173;-62
2022/04/07 05:54:31;;;;;;;1.33;1.23;;;7.70;99.90;;;;;;5019774;28;20211;-61
2022/04/07 05:56:57;;;;;;;1.47;1.37;;;7.70;99.90;;;;;;5007914;28;20318;-60
2022/04/07 05:59:23;;;;;;;2.30;1.60;;;7.70;99.90;;;;;;5005597;28;21035;-60
2022/04/07 06:01:49;;;;;;;1.40;1.20;;;7.70;99.90;;;;;;5013315;28;20283;-60
2022/04/07 06:04:15;;;;;;;2.33;1.17;;;7.70;99.90;;;;;;5007581;28;20422;-60
2022/04/07 06:06:41;;;;;;;1.30;1.20;;;7.70;99.90;;;;;;5003734;28;20459;-60
2022/04/07 06:09:06;;;;;;;4.33;1.20;;;7.70;99.90;;;;;;5016430;28;20942;-60
2022/04/07 06:11:32;;;;;;;2.30;1.30;;;7.80;99.90;;;;;;5009181;28;20722;-61
2022/04/07 06:13:58;;;;;;;1.73;1.30;;;7.80;99.90;;;;;;5003590;28;20260;-61
2022/04/07 06:16:24;;;;;;;4.30;1.27;;;7.80;99.90;;;;;;5006133;28;20199;-60
2022/04/07 06:18:51;;;;;;;1.57;1.47;;;7.90;99.90;;;;;;5014638;28;20561;-60
2022/04/07 06:21:17;;;;;;;9.33;1.30;;;7.90;99.90;;;;;;4991829;28;20680;-60
2022/04/07 06:23:42;;;;;;;2.93;1.30;;;7.90;99.90;;;;;;5001898;28;20482;-59
2022/04/07 06:26:08;;;;;;;4.80;1.50;;;7.90;99.90;;;;;;5002911;28;20580;-60
2022/04/07 06:28:34;;;;;;;1.63;1.50;;;7.90;99.90;;;;;;4986936;28;20533;-61
2022/04/07 06:30:59;;;;;;;1.30;1.20;;;7.90;99.90;;;;;;5006653;28;20169;-62
2022/04/07 06:33:25;;;;;;;1.90;1.30;;;7.90;99.90;;;;;;5002888;28;20181;-61
2022/04/07 06:35:51;;;;;;;2.63;1.50;;;8.00;99.90;;;;;;5000543;28;20278;-62
2022/04/07 06:38:17;;;;;;;1.30;1.10;;;8.00;99.90;;;;;;4985661;28;20168;-61
2022/04/07 06:40:44;;;;;;;1.80;1.33;;;8.00;99.90;;;;;;4998381;28;20436;-61
2022/04/07 06:43:10;;;;;;;1.77;1.67;;;8.10;99.90;;;;;;5001366;28;20200;-61
2022/04/07 06:45:36;;;;;;;2.30;1.23;;;8.10;99.90;;;;;;5004279;28;20427;-61
2022/04/07 06:48:02;;;;;;;2.77;1.07;;;8.10;99.90;;;;;;5000210;28;21133;-61
2022/04/07 06:50:27;;;;;;;1.50;1.30;;;8.10;99.90;;;;;;4984176;28;20276;-61
2022/04/07 06:52:54;;;;;;;1.10;1.00;;;8.20;99.90;;;;;;5006033;28;20189;-61
2022/04/07 06:55:20;;;;;;;1.20;1.10;;;8.20;99.90;;;;;;5006805;28;20242;-61
2022/04/07 06:57:57;;;;;;;1.40;1.30;;;8.30;99.90;;;;;;5000496;28;20992;-62
2022/04/07 07:00:29;;;;;;;3.40;1.30;;;8.40;99.90;;;;;;4989533;28;20619;-61
2022/04/07 07:02:56;;;;;;;4.93;1.00;;;8.50;99.00;;;;;;5006160;28;20467;-61
2022/04/07 07:05:23;;;;;;;5.10;1.47;;;8.50;97.50;;;;;;5004817;28;20434;-61
2022/04/07 07:07:49;;;;;;;1.00;1.00;;;8.60;97.70;;;;;;4986773;28;20551;-60
2022/04/07 07:10:23;;;;;;;1.50;1.10;;;8.70;95.70;;;;;;5005574;28;20502;-61
2022/04/07 07:12:50;;;;;;;1.07;1.07;;;8.70;93.80;;;;;;5000920;28;20268;-61
2022/04/07 07:15:16;;;;;;;1.80;1.30;;;8.80;93.00;;;;;;5003842;28;20949;-61
2022/04/07 07:17:42;;;;;;;2.30;1.00;;;8.80;91.90;;;;;;5006560;28;20439;-61
2022/04/07 07:20:12;;;;;;;1.10;1.00;;;8.90;91.50;;;;;;5005947;28;20179;-62
2022/04/07 07:22:39;;;;;;;1.90;1.20;;;8.90;91.80;;;;;;5002528;28;20251;-62
2022/04/07 07:25:05;;;;;;;1.20;1.10;;;8.90;91.20;;;;;;5007973;28;20421;-61
2022/04/07 07:27:37;;;;;;;2.27;1.00;;;8.90;91.60;;;;;;5006234;28;20459;-60
2022/04/07 07:30:04;;;;;;;1.20;1.10;;;8.90;90.50;;;;;;5003587;28;20428;-61
2022/04/07 07:32:30;;;;;;;2.50;1.10;;;8.90;90.90;;;;;;4999587;28;20471;-61
2022/04/07 07:34:59;;;;;;;2.20;1.23;;;8.90;90.30;;;;;;5004877;28;20439;-61
2022/04/07 07:37:24;;;;;;;1.53;1.20;;;8.90;90.50;;;;;;5005643;28;20247;-60
2022/04/07 07:39:50;;;;;;;2.23;1.10;;;8.90;90.70;;;;;;5001006;28;21022;-61
2022/04/07 07:42:16;;;;;;;1.37;1.30;;;8.90;90.00;;;;;;4985677;28;20799;-60
2022/04/07 07:44:42;;;;;;;1.63;1.10;;;8.90;91.50;;;;;;5003033;28;20557;-61
2022/04/07 07:47:07;;;;;;;1.30;1.20;;;8.90;91.60;;;;;;5005207;28;20198;-61
2022/04/07 07:49:33;;;;;;;1.30;1.20;;;8.90;91.80;;;;;;5002266;28;20180;-62
2022/04/07 07:51:59;;;;;;;5.30;1.23;;;8.90;91.50;;;;;;4982974;28;20242;-61
2022/04/07 07:54:24;;;;;;;0.97;0.93;;;8.90;90.70;;;;;;5002691;28;20248;-61
2022/04/07 07:56:50;;;;;;;8.23;2.60;;;8.90;91.20;;;;;;4979931;28;20270;-61
2022/04/07 07:59:20;;;;;;;1.60;1.00;;;8.90;91.80;;;;;;5005358;28;20263;-61
2022/04/07 08:01:48;;;;;;;1.00;1.00;;;8.90;92.00;;;;;;5006728;28;20192;-61
2022/04/07 08:04:15;;;;;;;1.33;1.00;;;8.90;91.30;;;;;;4971898;28;20442;-60
2022/04/07 08:06:41;;;;;;;2.00;1.50;;;8.80;92.10;;;;;;5007022;28;20967;-61
2022/04/07 08:09:09;;;;;;;1.90;1.27;;;8.80;93.30;;;;;;5005697;28;20892;-61
2022/04/07 08:11:35;;;;;;;1.20;1.10;;;8.80;94.30;;;;;;5003890;28;20431;-61
2022/04/07 08:14:01;;;;;;;1.30;1.20;;;8.80;94.80;;;;;;5003274;28;20431;-61
2022/04/07 08:16:29;;;;;;;1.47;1.37;;;8.80;94.70;;;;;;5012915;28;20199;-61
2022/04/07 08:18:55;;;;;;;2.10;1.33;;;8.80;94.90;;;;;;4994897;28;20188;-60
2022/04/07 08:21:20;;;;;;;0.97;0.97;;;8.80;95.50;;;;;;4995073;28;20475;-61
2022/04/07 08:23:46;;;;;;;1.50;1.40;;;8.80;96.20;;;;;;5016813;28;20186;-61
2022/04/07 08:26:12;;;;;;;3.73;1.73;;;8.80;96.50;;;;;;5017311;28;20825;-61
2022/04/07 08:28:37;;;;;;;1.13;1.10;;;8.80;97.10;;;;;;5007923;28;20314;-61
2022/04/07 08:31:03;;;;;;;1.30;1.20;;;8.90;96.50;;;;;;5020520;28;20184;-61
2022/04/07 08:33:29;;;;;;;1.53;1.43;;;9.00;96.10;;;;;;5024447;28;20745;-61
2022/04/07 08:35:54;;;;;;;1.07;1.07;;;9.10;96.30;;;;;;5007938;28;20191;-62
2022/04/07 08:38:20;;;;;;;1.10;1.00;;;9.10;95.70;;;;;;5006888;28;20189;-60
2022/04/07 08:40:51;;;;;;;1.30;1.10;;;9.20;95.90;;;;;;5011885;28;20708;-61
2022/04/07 08:43:17;;;;;;;1.00;0.97;;;9.20;94.60;;;;;;5018548;28;20502;-59
2022/04/07 08:45:44;;;;;;;2.93;1.10;;;9.30;92.00;;;;;;5014228;28;20423;-59
2022/04/07 08:48:12;;;;;;;0.90;0.90;;;9.40;91.60;;;;;;4993170;28;20435;-61
2022/04/07 08:50:42;;;;;;;1.07;0.93;;;9.50;90.40;;;;;;5015419;28;20918;-60
2022/04/07 08:53:08;;;;;;;0.87;0.87;;;9.60;87.50;;;;;;5011230;28;21001;-61
2022/04/07 08:55:34;;;;;;;2.13;1.17;;;9.60;84.60;;;;;;5011057;28;21168;-60
2022/04/07 08:58:00;;;;;;;1.00;0.90;;;9.70;85.50;;;;;;5013066;28;20431;-60
2022/04/07 09:00:26;;;;;;;1.00;0.90;;;9.70;85.70;;;;;;5010932;28;21006;-61
2022/04/07 09:02:55;;;;;;;1.10;1.00;;;9.70;87.70;;;;;;5009515;28;20471;-60
2022/04/07 09:05:25;;;;;;;0.93;0.83;;;9.70;87.90;;;;;;5010841;28;20641;-60
2022/04/07 09:07:56;;;;;;;2.63;1.20;;;9.70;88.10;;;;;;5003725;28;20458;-60
2022/04/07 09:10:24;;;;;;;0.97;0.97;;;9.70;90.00;;;;;;5021004;28;20425;-61
2022/04/07 09:12:53;;;;;;;0.80;0.80;;;9.70;91.80;;;;;;5027727;28;20422;-60
2022/04/07 09:15:19;;;;;;;0.83;0.83;;;9.70;93.20;;;;;;5017525;28;20430;-60
2022/04/07 09:17:55;;;;;;;2.83;1.13;;;9.70;94.70;;;;;;5025034;28;20937;-61
2022/04/07 09:20:22;;;;;;;1.07;0.90;;;9.80;95.00;;;;;;5011818;28;20750;-60
2022/04/07 09:22:58;;;;;;;1.20;0.90;;;9.80;94.70;;;;;;5012822;28;20466;-60
2022/04/07 09:25:24;;;;;;;0.90;0.90;;;9.90;93.40;;;;;;5011333;28;20518;-60
2022/04/07 09:27:50;;;;;;;1.10;1.00;;;10.10;91.80;;;;;;5012885;28;20440;-60
2022/04/07 09:30:16;;;;;;;0.97;0.97;;;10.30;88.30;;;;;;5017427;28;20428;-60
2022/04/07 09:32:44;;;;;;;2.07;0.87;;;10.40;81.20;;;;;;5016633;28;20427;-60
2022/04/07 09:35:11;;;;;;;10.53;1.33;;;10.40;79.00;;;;;;5011334;28;20430;-60
2022/04/07 09:37:38;;;;;;;0.80;0.80;;;10.40;78.00;;;;;;5027493;28;20476;-61
2022/04/07 09:40:12;;;;;;;1.00;1.00;;;10.30;82.80;;;;;;5015377;28;20444;-60
2022/04/07 09:42:41;;;;;;;1.00;0.90;;;10.30;83.00;;;;;;5011938;28;20469;-60
2022/04/07 09:45:11;;;;;;;1.00;0.90;;;10.30;80.50;;;;;;5020251;28;20412;-59
2022/04/07 09:47:37;;;;;;;3.43;0.90;;;10.20;80.10;;;;;;5000531;28;20517;-60
2022/04/07 09:50:04;;;;;;;1.00;0.87;;;10.30;79.70;;;;;;5001741;28;20931;-60
2022/04/07 09:52:30;;;;;;;1.63;1.07;;;10.30;77.90;;;;;;5016780;28;20735;-60
2022/04/07 09:55:02;;;;;;;1.00;0.90;;;10.20;85.30;;;;;;5019266;28;20455;-62
2022/04/07 09:57:29;;;;;;;2.97;0.97;;;10.20;91.90;;;;;;5017806;28;20534;-60
2022/04/07 09:59:56;;;;;;;0.80;0.80;;;10.10;93.50;;;;;;5010305;28;20434;-61
2022/04/07 10:02:23;;;;;;;0.90;0.90;;;10.00;95.00;;;;;;5002151;28;20489;-60
2022/04/07 10:04:51;;;;;;;1.30;1.00;;;10.00;93.90;;;;;;5021058;28;20420;-60
2022/04/07 10:07:17;;;;;;;0.70;0.70;;;9.90;96.80;;;;;;5009473;28;20465;-60
2022/04/07 10:09:43;;;;;;;1.03;0.93;;;9.90;99.20;;;;;;5005606;28;20442;-60
2022/04/07 10:12:10;;;;;;;0.90;0.90;;;9.90;99.90;;;;;;4990249;28;20505;-61
2022/04/07 10:14:37;;;;;;;1.00;1.00;;;10.00;99.40;;;;;;4987783;28;20180;-60
2022/04/07 10:17:03;;;;;;;2.13;0.90;;;10.00;96.30;;;;;;5015553;28;20866;-61
2022/04/07 10:19:37;;;;;;;2.40;1.10;;;10.00;95.00;;;;;;5008779;28;20443;-61
2022/04/07 10:22:24;;;;;;;0.90;0.90;;;10.00;95.00;;;;;;5004103;28;20819;-60
2022/04/07 10:24:55;;;;;;;1.43;0.90;;;10.10;94.50;;;;;;5006773;28;20854;-60
2022/04/07 10:27:25;;;;;;;0.80;0.80;;;10.20;96.50;;;;;;5020304;28;20458;-61
2022/04/07 10:30:11;;;;;;;0.80;0.80;;;10.30;92.10;;;;;;5006279;28;20427;-60
2022/04/07 10:32:41;;;;;;;2.20;1.10;;;10.30;91.00;;;;;;5060705;22;20500;-60
2022/04/07 10:35:08;;;;;;;2.07;1.87;;;10.40;91.90;;;;;;5044359;28;20407;-60
2022/04/07 10:37:43;;;;;;;0.90;0.90;;;10.50;89.60;;;;;;5047598;28;20417;-59
2022/04/07 10:40:37;;;;;;;0.90;0.90;;;10.50;91.00;;;;;;5045094;28;20430;-59
2022/04/07 10:43:14;;;;;;;1.20;1.10;;;10.50;90.60;;;;;;5046124;28;20660;-59
2022/04/07 10:45:41;;;;;;;1.50;1.17;;;10.50;90.40;;;;;;5028065;28;20422;-60
2022/04/07 10:48:20;;;;;;;1.00;0.80;;;10.40;91.50;;;;;;5046683;28;20433;-60
2022/04/07 10:50:59;;;;;;;0.87;0.87;;;10.40;93.30;;;;;;5026954;28;20411;-60
2022/04/07 10:53:31;;;;;;;1.60;1.00;;;10.30;94.20;;;;;;5044370;28;20431;-59
2022/04/07 10:56:07;;;;;;;1.40;1.30;;;10.40;93.20;;;;;;5040049;28;20457;-59
2022/04/07 10:58:47;;;;;;;1.37;1.27;;;10.50;93.90;;;;;;5024241;28;20430;-59
2022/04/07 11:01:31;;;;;;;1.43;1.10;;;10.60;92.70;;;;;;5043687;28;20430;-60
2022/04/07 11:04:21;;;;;;;2.77;0.90;;;10.80;90.70;;;;;;5032755;28;20521;-60
2022/04/07 11:07:05;;;;;;;1.13;1.10;;;10.90;81.30;;;;;;5062821;28;20418;-59
2022/04/07 11:10:03;;;;;;;0.90;0.90;;;11.00;81.70;;;;;;5046616;28;20474;-63
2022/04/07 11:12:33;;;;;;;1.50;1.10;;;11.00;77.50;;;;;;5045558;28;20431;-60
2022/04/07 11:15:01;;;;;;;1.77;0.73;;;11.00;78.50;;;;;;5041580;28;20426;-60
2022/04/07 11:17:33;;;;;;;12.20;1.37;;;11.00;76.80;;;;;;5046999;28;20410;-60
2022/04/07 11:20:15;;;;;;;6.57;1.30;;;11.10;75.70;;;;;;5033554;28;20425;-59
2022/04/07 11:23:08;;;;;;;3.70;1.27;;;11.10;77.10;;;;;;5064416;28;20460;-61
2022/04/07 11:25:38;;;;;;;5.27;1.27;;;11.30;74.40;;;;;;5041423;28;20475;-59
2022/04/07 11:28:18;;;;;;;2.90;1.30;;;11.30;74.60;;;;;;5027805;28;20450;-60
2022/04/07 11:30:49;;;;;;;2.80;1.00;;;11.20;72.70;;;;;;5041552;28;20413;-62
2022/04/07 11:33:15;;;;;;;2.70;1.10;;;11.10;72.50;;;;;;5031336;28;20689;-59
2022/04/07 11:35:41;;;;;;;3.90;1.20;;;11.00;75.40;;;;;;5043430;28;20414;-60
2022/04/07 11:38:06;;;;;;;1.73;0.80;;;10.90;81.20;;;;;;5045028;28;20440;-59
2022/04/07 11:40:33;;;;;;;1.37;1.10;;;10.70;83.40;;;;;;5040270;28;20438;-60
2022/04/07 11:42:58;;;;;;;1.37;0.90;;;10.50;89.10;;;;;;5046885;28;20509;-60
2022/04/07 11:45:31;;;;;;;5.20;1.07;;;10.40;93.70;;;;;;5046244;28;20172;-59
2022/04/07 11:47:57;;;;;;;5.27;1.00;;;10.20;97.50;;;;;;5041215;28;20172;-60
2022/04/07 11:50:23;;;;;;;3.23;1.00;;;10.10;99.90;;;;;;5027575;28;20454;-60
2022/04/07 11:52:50;;;;;;;1.23;1.10;;;10.00;99.90;;;;;;5045955;28;20445;-60
2022/04/07 11:55:27;;;;;;;1.20;1.10;;;9.90;99.90;;;;;;5059174;28;20433;-60
2022/04/07 11:58:00;;;;;;;2.90;1.00;;;9.90;99.90;;;;;;5037440;28;20522;-59
2022/04/07 12:00:32;;;;;;;7.03;1.20;;;9.90;99.90;;;;;;5012655;28;20609;-59
2022/04/07 12:03:03;;;;;;;1.00;0.80;;;10.00;99.90;;;;;;5035079;28;21024;-60
2022/04/07 12:05:30;;;;;;;1.03;0.90;;;9.90;99.90;;;;;;5059302;28;20475;-59
2022/04/07 12:07:56;;;;;;;2.70;0.80;;;9.80;99.90;;;;;;5050676;28;20434;-60
2022/04/07 12:10:22;;;;;;;1.20;0.87;;;9.70;99.90;;;;;;5031604;28;20657;-60
2022/04/07 12:12:48;;;;;;;2.00;1.00;;;9.70;99.90;;;;;;5048836;28;20443;-60
2022/04/07 12:15:17;;;;;;;0.70;0.70;;;9.60;99.90;;;;;;5067269;28;20398;-61
2022/04/07 12:17:58;;;;;;;2.17;1.10;;;9.50;99.90;;;;;;5029628;28;20177;-59
2022/04/07 12:20:24;;;;;;;1.13;1.00;;;9.60;99.90;;;;;;5027063;28;20423;-61
2022/04/07 12:23:07;;;;;;;4.30;1.10;;;9.60;99.90;;;;;;5042066;28;20453;-62
2022/04/07 12:25:33;;;;;;;1.00;1.00;;;9.60;99.90;;;;;;5036834;28;20206;-60
2022/04/07 12:28:17;;;;;;;4.03;1.20;;;9.60;99.90;;;;;;5044413;28;20478;-61
2022/04/07 12:30:44;;;;;;;3.23;1.07;;;9.60;99.90;;;;;;5046284;28;20432;-59
2022/04/07 12:33:09;;;;;;;0.90;0.90;;;9.60;99.90;;;;;;5045821;28;20450;-67
2022/04/07 12:35:46;;;;;;;1.40;1.00;;;9.60;99.90;;;;;;5024047;28;20436;-67
2022/04/07 12:38:12;;;;;;;5.43;1.23;;;9.60;99.90;;;;;;5044921;28;20266;-62
2022/04/07 12:40:39;;;;;;;1.10;1.00;;;9.60;99.90;;;;;;5034090;28;20444;-59
2022/04/07 12:43:04;;;;;;;4.43;1.10;;;9.60;99.90;;;;;;5045476;28;20459;-59
2022/04/07 12:45:30;;;;;;;2.77;0.97;;;9.60;99.90;;;;;;5047192;28;20421;-60
2022/04/07 12:48:18;;;;;;;0.80;0.80;;;9.60;99.90;;;;;;5048059;28;20181;-61
2022/04/07 12:50:43;;;;;;;1.67;1.10;;;9.60;99.90;;;;;;5042269;28;20418;-59
2022/04/07 12:53:31;;;;;;;0.93;0.80;;;9.60;99.90;;;;;;5036037;28;20450;-62
2022/04/07 12:56:02;;;;;;;0.80;0.80;;;9.60;99.90;;;;;;5038306;28;20180;-62
2022/04/07 12:58:29;;;;;;;1.27;0.90;;;9.50;99.90;;;;;;5045193;28;20522;-62